createdAt,value
2022-09-11T00:02:36.802Z,95469.72
2022-09-11T00:05:24.545Z,95473.28
2022-09-11T00:08:17.616Z,95457.41
2022-09-11T00:11:19.817Z,95463.34
2022-09-11T00:14:08.545Z,95417.13
2022-09-11T00:16:56.080Z,95400.91
2022-09-11T00:19:43.737Z,95430.63
2022-09-11T00:22:33.968Z,95446.31
2022-09-11T00:25:22.239Z,95424.94
2022-09-11T00:28:14.356Z,95444.34
2022-09-11T00:31:07.873Z,95440.97
2022-09-11T00:33:57.481Z,95447.53
2022-09-11T00:36:48.634Z,95466.56
2022-09-11T00:39:38.880Z,95454.81
2022-09-11T00:42:26.020Z,95455.13
2022-09-11T00:45:25.867Z,95460.72
2022-09-11T00:48:16.744Z,95451.13
2022-09-11T00:51:07.178Z,95459.81
2022-09-11T00:53:55.434Z,95455.16
2022-09-11T00:56:46.165Z,95451.88
2022-09-11T00:59:34.030Z,95453.16
2022-09-11T01:02:27.431Z,95452.00
2022-09-11T01:05:16.991Z,95443.47
2022-09-11T01:08:06.891Z,95447.50
2022-09-11T01:11:22.684Z,95467.31
2022-09-11T01:14:31.336Z,95479.50
2022-09-11T01:18:00.882Z,95464.53
2022-09-11T01:21:21.080Z,95447.84
2022-09-11T01:24:36.004Z,95461.41
2022-09-11T01:27:44.185Z,95468.81
2022-09-11T01:30:39.318Z,95453.16
2022-09-11T01:33:31.758Z,95469.38
2022-09-11T01:36:25.659Z,95466.25
2022-09-11T01:39:13.566Z,95475.22
2022-09-11T01:42:15.483Z,95429.44
2022-09-11T01:45:08.964Z,95461.56
2022-09-11T01:48:00.541Z,95446.84
2022-09-11T01:50:52.667Z,95448.88
2022-09-11T01:53:49.376Z,95457.34
2022-09-11T01:56:41.440Z,95444.50
2022-09-11T01:59:36.345Z,95447.59
2022-09-11T02:02:31.932Z,95441.88
2022-09-11T02:05:30.388Z,95441.94
2022-09-11T02:08:53.225Z,95457.06
2022-09-11T02:11:47.966Z,95448.03
2022-09-11T02:14:41.788Z,95436.81
2022-09-11T02:18:06.691Z,95441.00
2022-09-11T02:20:54.466Z,95453.91
2022-09-11T02:23:41.003Z,95449.47
2022-09-11T02:26:32.378Z,95453.56
2022-09-11T02:29:20.162Z,95393.75
2022-09-11T02:32:07.695Z,95410.81
2022-09-11T02:34:55.774Z,95442.81
2022-09-11T02:37:50.631Z,95428.00
2022-09-11T02:40:50.483Z,95442.56
2022-09-11T02:43:51.811Z,95436.38
2022-09-11T02:46:52.365Z,95396.63
2022-09-11T02:50:28.720Z,95438.09
2022-09-11T02:53:39.173Z,95431.34
2022-09-11T02:56:46.829Z,95446.06
2022-09-11T02:59:45.844Z,95427.81
2022-09-11T03:02:41.295Z,95442.03
2022-09-11T03:05:30.498Z,95443.09
2022-09-11T03:08:18.394Z,95449.09
2022-09-11T03:11:07.174Z,95446.06
2022-09-11T03:13:56.983Z,95441.34
2022-09-11T03:16:45.357Z,95447.09
2022-09-11T03:19:33.647Z,95447.09
2022-09-11T03:22:21.434Z,95447.88
2022-09-11T03:25:15.949Z,95464.84
2022-09-11T03:28:05.454Z,95454.81
2022-09-11T03:30:54.306Z,95437.59
2022-09-11T03:33:45.431Z,95438.19
2022-09-11T03:36:36.401Z,95444.19
2022-09-11T03:39:28.421Z,95455.84
2022-09-11T03:42:18.789Z,95455.28
2022-09-11T03:45:06.939Z,95446.59
2022-09-11T03:47:55.204Z,95449.63
2022-09-11T03:50:42.486Z,95441.03
2022-09-11T03:53:30.180Z,95447.41
2022-09-11T03:56:17.819Z,95465.22
2022-09-11T03:59:08.092Z,95456.00
2022-09-11T04:01:57.250Z,95458.72
2022-09-11T04:04:45.586Z,95452.94
2022-09-11T04:07:33.054Z,95451.78
2022-09-11T04:10:22.831Z,95455.34
2022-09-11T04:13:12.600Z,95455.91
2022-09-11T04:16:14.141Z,95456.72
2022-09-11T04:19:02.741Z,95457.91
2022-09-11T04:21:55.240Z,95467.56
2022-09-11T04:24:42.890Z,95448.75
2022-09-11T04:27:34.085Z,95466.75
2022-09-11T04:30:22.830Z,95445.69
2022-09-11T04:33:12.445Z,95454.47
2022-09-11T04:36:05.366Z,95461.31
2022-09-11T04:38:59.114Z,95446.25
2022-09-11T04:41:47.370Z,95447.41
2022-09-11T04:44:36.757Z,95453.09
2022-09-11T04:47:25.246Z,95446.84
2022-09-11T04:50:13.693Z,95458.38
2022-09-11T04:53:03.080Z,95454.25
2022-09-11T04:56:02.007Z,95453.44
2022-09-11T04:59:02.451Z,95473.69
2022-09-11T05:01:52.527Z,95473.44
2022-09-11T05:04:42.334Z,95471.28
2022-09-11T05:07:30.495Z,95470.25
2022-09-11T05:10:20.840Z,95466.47
2022-09-11T05:13:09.598Z,95480.56
2022-09-11T05:16:03.171Z,95483.84
2022-09-11T05:18:53.527Z,95468.19
2022-09-11T05:21:42.663Z,95477.13
2022-09-11T05:24:30.209Z,95477.81
2022-09-11T05:27:18.528Z,95495.34
2022-09-11T05:30:09.535Z,95462.88
2022-09-11T05:32:58.405Z,95481.44
2022-09-11T05:35:52.527Z,95480.38
2022-09-11T05:38:44.856Z,95488.28
2022-09-11T05:41:33.220Z,95485.81
2022-09-11T05:44:21.559Z,95486.72
2022-09-11T05:47:08.366Z,95481.03
2022-09-11T05:49:56.823Z,95472.34
2022-09-11T05:52:45.457Z,95472.25
2022-09-11T05:55:36.680Z,95465.34
2022-09-11T05:58:25.198Z,95467.09
2022-09-11T06:01:20.651Z,95457.19
2022-09-11T06:04:15.490Z,95466.59
2022-09-11T06:07:04.899Z,95470.47
2022-09-11T06:09:53.103Z,95466.09
2022-09-11T06:12:42.662Z,95464.94
2022-09-11T06:15:46.137Z,95465.16
2022-09-11T06:18:38.345Z,95476.19
2022-09-11T06:21:32.895Z,95467.31
2022-09-11T06:24:33.616Z,95469.13
2022-09-11T06:27:21.509Z,95481.81
2022-09-11T06:30:11.260Z,95475.22
2022-09-11T06:33:02.041Z,95471.84
2022-09-11T06:36:02.152Z,95428.66
2022-09-11T06:38:59.182Z,95454.00
2022-09-11T06:41:49.166Z,95460.72
2022-09-11T06:44:39.052Z,95425.94
2022-09-11T06:47:26.509Z,95467.69
2022-09-11T06:50:15.162Z,95466.38
2022-09-11T06:53:31.360Z,95474.94
2022-09-11T06:56:22.105Z,95479.41
2022-09-11T06:59:10.526Z,95486.81
2022-09-11T07:01:58.458Z,95487.97
2022-09-11T07:04:47.984Z,95480.63
2022-09-11T07:07:45.062Z,95473.28
2022-09-11T07:10:37.065Z,95464.81
2022-09-11T07:22:11.206Z,95497.16
2022-09-11T07:24:58.606Z,95491.06
2022-09-11T07:27:47.482Z,95499.06
2022-09-11T07:30:35.282Z,95490.38
2022-09-11T07:33:22.493Z,95484.09
2022-09-11T07:36:12.271Z,95487.78
2022-09-11T07:39:01.943Z,95491.78
2022-09-11T07:41:54.857Z,95470.38
2022-09-11T07:44:45.878Z,95480.06
2022-09-11T07:47:34.034Z,95479.75
2022-09-11T07:50:21.802Z,95479.63
2022-09-11T07:53:08.209Z,95485.13
2022-09-11T07:55:56.121Z,95485.75
2022-09-11T07:58:43.420Z,95486.00
2022-09-11T08:01:31.678Z,95491.88
2022-09-11T08:04:17.895Z,95480.53
2022-09-11T08:07:04.539Z,95483.91
2022-09-11T08:10:16.445Z,95473.63
2022-09-11T08:13:00.680Z,95477.25
2022-09-11T08:15:52.055Z,95482.22
2022-09-11T08:18:39.310Z,95483.97
2022-09-11T08:21:26.433Z,95466.00
2022-09-11T08:24:13.230Z,95475.91
2022-09-11T08:27:00.421Z,95460.03
2022-09-11T08:29:48.245Z,95483.59
2022-09-11T08:32:36.176Z,95485.00
2022-09-11T08:35:22.112Z,95478.47
2022-09-11T08:38:07.911Z,95479.88
2022-09-11T08:40:54.445Z,95484.28
2022-09-11T08:43:53.496Z,95484.53
2022-09-11T08:46:42.221Z,95500.94
2022-09-11T08:49:35.832Z,95490.81
2022-09-11T08:52:22.630Z,95490.31
2022-09-11T08:55:17.565Z,95479.63
2022-09-11T08:58:14.582Z,95476.94
2022-09-11T09:01:12.782Z,95484.53
2022-09-11T09:04:31.102Z,95473.63
2022-09-11T09:07:32.300Z,95487.81
2022-09-11T09:10:46.928Z,95487.81
2022-09-11T09:14:07.417Z,95485.59
2022-09-11T09:17:00.153Z,95479.34
2022-09-11T09:19:52.690Z,95483.41
2022-09-11T09:22:49.901Z,95472.22
2022-09-11T09:25:38.627Z,95459.09
2022-09-11T09:28:41.636Z,95447.38
2022-09-11T09:31:31.285Z,95437.59
2022-09-11T09:34:19.926Z,95437.38
2022-09-11T09:37:18.081Z,95434.94
2022-09-11T09:40:10.408Z,95420.19
2022-09-11T09:43:20.334Z,95424.88
2022-09-11T09:46:27.568Z,95421.38
2022-09-11T09:49:17.996Z,95429.91
2022-09-11T09:52:24.893Z,95425.53
2022-09-11T09:55:16.761Z,95402.94
2022-09-11T09:58:02.733Z,95409.81
2022-09-11T10:00:49.065Z,95397.81
2022-09-11T10:03:34.850Z,95406.56
2022-09-11T10:06:22.163Z,95407.41
2022-09-11T10:09:22.346Z,95406.03
2022-09-11T10:12:24.459Z,95403.59
2022-09-11T10:15:19.236Z,95404.97
2022-09-11T10:18:33.629Z,95401.72
2022-09-11T10:21:36.800Z,95396.81
2022-09-11T10:24:24.049Z,95400.69
2022-09-11T10:27:12.836Z,95385.41
2022-09-11T10:30:00.593Z,95389.44
2022-09-11T10:32:46.625Z,95382.63
2022-09-11T10:35:35.676Z,95371.41
2022-09-11T10:38:26.061Z,95374.69
2022-09-11T10:41:19.228Z,95369.75
2022-09-11T10:44:14.326Z,95365.09
2022-09-11T10:47:03.591Z,95375.75
2022-09-11T10:49:49.656Z,95372.19
2022-09-11T10:52:51.244Z,95374.38
2022-09-11T10:55:40.850Z,95371.03
2022-09-11T10:58:33.707Z,95357.66
2022-09-11T11:01:19.396Z,95368.91
2022-09-11T11:04:09.220Z,95360.59
2022-09-11T11:07:17.801Z,95361.69
2022-09-11T11:10:25.510Z,95360.91
2022-09-11T11:13:36.281Z,95358.94
2022-09-11T11:16:36.197Z,95347.25
2022-09-11T11:19:22.435Z,95349.38
2022-09-11T11:22:45.406Z,95335.00
2022-09-11T11:26:03.051Z,95343.41
2022-09-11T11:29:00.457Z,95335.44
2022-09-11T11:32:22.270Z,95326.47
2022-09-11T11:35:25.879Z,95331.88
2022-09-11T11:38:20.254Z,95338.09
2022-09-11T11:41:12.727Z,95307.69
2022-09-11T11:43:59.264Z,95324.44
2022-09-11T11:46:49.324Z,95325.38
2022-09-11T11:49:51.120Z,95315.00
2022-09-11T11:52:57.061Z,95314.91
2022-09-11T11:56:01.381Z,95310.47
2022-09-11T11:58:53.999Z,95299.16
2022-09-11T12:01:40.833Z,95291.84
2022-09-11T12:04:47.016Z,95290.09
2022-09-11T12:07:34.653Z,95291.75
2022-09-11T12:10:33.450Z,95274.75
2022-09-11T12:13:20.690Z,95275.41
2022-09-11T12:16:25.057Z,95271.97
2022-09-11T12:19:19.910Z,95272.34
2022-09-11T12:22:11.388Z,95259.34
2022-09-11T12:25:00.501Z,95247.38
2022-09-11T12:27:46.615Z,95258.63
2022-09-11T12:30:56.209Z,95251.41
2022-09-11T12:33:42.025Z,95237.19
2022-09-11T12:36:36.366Z,95215.03
2022-09-11T12:39:33.281Z,95219.19
2022-09-11T12:42:28.186Z,95214.47
2022-09-11T12:45:36.396Z,95208.75
2022-09-11T12:48:26.051Z,95209.94
2022-09-11T12:51:21.931Z,95214.59
2022-09-11T12:54:33.645Z,95214.84
2022-09-11T12:57:27.994Z,95221.66
2022-09-11T13:00:34.863Z,95217.25
2022-09-11T13:03:25.154Z,95211.03
2022-09-11T13:06:13.715Z,95233.53
2022-09-11T13:09:00.779Z,95242.75
2022-09-11T13:11:55.344Z,95241.88
2022-09-11T13:14:56.506Z,95240.84
2022-09-11T13:17:46.832Z,95252.16
2022-09-11T13:20:32.871Z,95256.84
2022-09-11T13:23:18.827Z,95275.56
2022-09-11T13:26:06.405Z,95281.03
2022-09-11T13:28:54.932Z,95306.56
2022-09-11T13:31:40.975Z,95310.00
2022-09-11T13:34:28.748Z,95300.31
2022-09-11T13:37:42.604Z,95294.81
2022-09-11T13:40:39.482Z,95296.50
2022-09-11T13:43:31.340Z,95299.88
2022-09-11T13:46:17.306Z,95314.38
2022-09-11T13:49:10.382Z,95314.94
2022-09-11T13:51:56.380Z,95317.94
2022-09-11T13:55:10.436Z,95314.38
2022-09-11T13:58:01.699Z,95316.56
2022-09-11T14:00:48.905Z,95310.59
2022-09-11T14:03:35.012Z,95301.53
2022-09-11T14:06:21.301Z,95313.56
2022-09-11T14:09:07.204Z,95303.16
2022-09-11T14:11:53.182Z,95307.53
2022-09-11T14:14:39.127Z,95302.34
2022-09-11T14:17:25.918Z,95281.63
2022-09-11T14:20:20.152Z,95286.50
2022-09-11T14:23:06.549Z,95296.31
2022-09-11T14:26:14.817Z,95291.09
2022-09-11T14:29:06.919Z,95314.53
2022-09-11T14:31:54.310Z,95308.50
2022-09-11T14:34:40.327Z,95289.66
2022-09-11T14:37:27.965Z,95314.72
2022-09-11T14:40:16.315Z,95317.94
2022-09-11T14:43:03.479Z,95293.06
2022-09-11T14:45:51.634Z,95321.19
2022-09-11T14:48:38.057Z,95317.28
2022-09-11T14:51:24.477Z,95310.41
2022-09-11T14:54:15.581Z,95331.03
2022-09-11T14:57:03.211Z,95337.78
2022-09-11T14:59:50.300Z,95337.75
2022-09-11T15:02:36.494Z,95318.34
2022-09-11T15:05:24.713Z,95321.84
2022-09-11T15:08:10.937Z,95320.22
2022-09-11T15:10:57.014Z,95326.16
2022-09-11T15:14:10.996Z,95315.78
2022-09-11T15:16:50.926Z,95308.06
2022-09-11T15:19:38.089Z,95309.16
2022-09-11T15:22:24.037Z,95310.19
2022-09-11T15:25:10.189Z,95311.78
2022-09-11T15:27:56.448Z,95301.63
2022-09-11T15:30:42.903Z,95308.97
2022-09-11T15:33:30.392Z,95321.88
2022-09-11T15:36:16.435Z,95315.31
2022-09-11T15:39:03.628Z,95326.38
2022-09-11T15:41:49.353Z,95333.06
2022-09-11T15:44:36.384Z,95333.41
2022-09-11T15:47:22.781Z,95325.13
2022-09-11T15:50:09.488Z,95346.56
2022-09-11T15:52:55.637Z,95360.97
2022-09-11T15:55:41.910Z,95361.28
2022-09-11T15:58:27.776Z,95350.91
2022-09-11T16:01:22.201Z,95343.53
2022-09-11T16:04:13.933Z,95328.84
2022-09-11T16:07:00.287Z,95334.28
2022-09-11T16:09:46.389Z,95319.84
2022-09-11T16:12:34.658Z,95343.59
2022-09-11T16:15:21.134Z,95350.91
2022-09-11T16:18:09.729Z,95345.16
2022-09-11T16:20:58.061Z,95320.59
2022-09-11T16:23:44.518Z,95322.91
2022-09-11T16:26:31.731Z,95328.34
2022-09-11T16:29:21.121Z,95328.34
2022-09-11T16:32:06.958Z,95323.75
2022-09-11T16:34:52.844Z,95325.63
2022-09-11T16:37:38.954Z,95315.59
2022-09-11T16:40:25.029Z,95322.38
2022-09-11T16:43:11.012Z,95321.28
2022-09-11T16:45:57.561Z,95316.94
2022-09-11T16:48:48.462Z,95306.56
2022-09-11T16:51:46.520Z,95310.91
2022-09-11T16:54:32.400Z,95300.00
2022-09-11T16:57:18.278Z,95310.03
2022-09-11T17:00:05.428Z,95307.00
2022-09-11T17:02:52.513Z,95310.88
2022-09-11T17:05:38.533Z,95304.81
2022-09-11T17:08:25.182Z,95290.03
2022-09-11T17:11:13.822Z,95315.75
2022-09-11T17:14:03.689Z,95331.47
2022-09-11T17:16:50.190Z,95335.00
2022-09-11T17:19:36.161Z,95319.94
2022-09-11T17:22:22.077Z,95346.34
2022-09-11T17:25:09.595Z,95352.00
2022-09-11T17:27:56.226Z,95347.84
2022-09-11T17:30:42.145Z,95364.22
2022-09-11T17:33:28.187Z,95374.00
2022-09-11T17:36:17.245Z,95374.56
2022-09-11T17:39:04.264Z,95362.72
2022-09-11T17:41:50.552Z,95373.44
2022-09-11T17:44:36.581Z,95376.91
2022-09-11T17:47:22.690Z,95391.63
2022-09-11T17:50:09.769Z,95390.25
2022-09-11T17:52:56.193Z,95401.66
2022-09-11T17:55:42.300Z,95391.22
2022-09-11T17:58:29.697Z,95399.47
2022-09-11T18:01:17.096Z,95385.22
2022-09-11T18:04:03.422Z,95395.31
2022-09-11T18:06:51.138Z,95393.69
2022-09-11T18:09:37.281Z,95396.41
2022-09-11T18:12:25.796Z,95399.94
2022-09-11T18:15:12.390Z,95404.75
2022-09-11T18:17:58.848Z,95404.47
2022-09-11T18:20:45.667Z,95402.25
2022-09-11T18:23:31.870Z,95397.91
2022-09-11T18:26:27.069Z,95410.34
2022-09-11T18:29:15.630Z,95423.16
2022-09-11T18:32:03.446Z,95426.97
2022-09-11T18:34:49.735Z,95419.09
2022-09-11T18:37:35.784Z,95416.84
2022-09-11T18:40:21.892Z,95422.03
2022-09-11T18:43:08.956Z,95406.19
2022-09-11T18:45:55.529Z,95422.03
2022-09-11T18:48:46.289Z,95418.34
2022-09-11T18:51:32.965Z,95420.50
2022-09-11T18:54:21.082Z,95429.22
2022-09-11T18:57:07.427Z,95425.28
2022-09-11T18:59:53.693Z,95434.56
2022-09-11T19:02:39.767Z,95413.78
2022-09-11T19:05:26.350Z,95430.16
2022-09-11T19:08:12.361Z,95433.16
2022-09-11T19:11:00.102Z,95411.56
2022-09-11T19:13:46.385Z,95419.22
2022-09-11T19:16:33.319Z,95435.88
2022-09-11T19:19:20.041Z,95422.50
2022-09-11T19:22:05.939Z,95440.56
2022-09-11T19:24:54.738Z,95442.72
2022-09-11T19:27:42.047Z,95438.38
2022-09-11T19:30:27.836Z,95443.78
2022-09-11T19:33:13.806Z,95448.41
2022-09-11T19:36:03.968Z,95451.59
2022-09-11T19:38:52.858Z,95458.19
2022-09-11T19:41:39.932Z,95454.59
2022-09-11T19:44:26.265Z,95459.19
2022-09-11T19:47:12.549Z,95433.75
2022-09-11T19:50:00.291Z,95460.56
2022-09-11T19:55:33.941Z,95472.78
2022-09-11T19:58:23.859Z,95471.09
2022-09-11T20:01:15.292Z,95465.94
2022-09-11T20:04:01.815Z,95459.34
2022-09-11T20:09:34.130Z,95463.69
2022-09-11T20:12:21.223Z,95471.91
2022-09-11T20:15:08.145Z,95461.25
2022-09-11T20:17:54.112Z,95450.03
2022-09-11T20:20:44.825Z,95464.84
2022-09-11T20:23:31.798Z,95466.75
2022-09-11T20:26:22.239Z,95474.41
2022-09-11T20:29:12.338Z,95442.72
2022-09-11T20:32:00.556Z,95451.13
2022-09-11T20:34:46.904Z,95458.84
2022-09-11T20:37:36.740Z,95458.53
2022-09-11T20:40:23.006Z,95458.03
2022-09-11T20:43:08.814Z,95443.06
2022-09-11T20:45:54.697Z,95450.72
2022-09-11T20:48:40.734Z,95460.00
2022-09-11T20:51:26.817Z,95460.00
2022-09-11T20:54:12.901Z,95453.00
2022-09-11T20:57:00.504Z,95459.91
2022-09-11T20:59:46.703Z,95467.00
2022-09-11T21:02:32.731Z,95476.44
2022-09-11T21:05:18.554Z,95458.69
2022-09-11T21:08:04.745Z,95443.50
2022-09-11T21:10:50.762Z,95480.13
2022-09-11T21:13:38.304Z,95472.44
2022-09-11T21:16:24.201Z,95476.22
2022-09-11T21:19:12.753Z,95479.75
2022-09-11T21:21:58.476Z,95473.59
2022-09-11T21:24:48.162Z,95468.38
2022-09-11T21:27:34.091Z,95480.88
2022-09-11T21:30:20.204Z,95480.88
2022-09-11T21:33:06.132Z,95479.75
2022-09-11T21:35:52.714Z,95461.50
2022-09-11T21:38:38.966Z,95465.31
2022-09-11T21:41:25.149Z,95478.88
2022-09-11T21:44:10.969Z,95484.53
2022-09-11T21:46:56.940Z,95489.97
2022-09-11T21:49:43.036Z,95485.75
2022-09-11T21:52:29.558Z,95474.19
2022-09-11T21:55:15.626Z,95487.03
2022-09-11T21:58:01.647Z,95493.31
2022-09-11T22:00:48.539Z,95491.63
2022-09-11T22:03:34.896Z,95491.63
2022-09-11T22:06:22.333Z,95492.97
2022-09-11T22:09:08.495Z,95489.91
2022-09-11T22:11:59.205Z,95500.28
2022-09-11T22:14:46.808Z,95489.31
2022-09-11T22:17:33.132Z,95501.56
2022-09-11T22:20:19.360Z,95501.00
2022-09-11T22:23:05.803Z,95498.03
2022-09-11T22:25:59.251Z,95499.56
2022-09-11T22:28:45.686Z,95483.69
2022-09-11T22:31:31.619Z,95500.28
2022-09-11T22:34:17.877Z,95505.66
2022-09-11T22:37:04.447Z,95507.53
2022-09-11T22:39:50.426Z,95489.84
2022-09-11T22:42:36.048Z,95497.16
2022-09-11T22:45:21.954Z,95485.41
2022-09-11T22:48:07.829Z,95500.69
2022-09-11T22:50:54.331Z,95509.88
2022-09-11T22:53:40.781Z,95495.28
2022-09-11T22:56:26.738Z,95496.81
2022-09-11T22:59:12.887Z,95483.59
2022-09-11T23:01:59.743Z,95504.94
2022-09-11T23:05:05.568Z,95509.19
2022-09-11T23:07:52.591Z,95488.91
2022-09-11T23:10:42.680Z,95510.69
2022-09-11T23:13:32.146Z,95507.41
2022-09-11T23:16:21.127Z,95504.84
2022-09-11T23:19:07.159Z,95495.75
2022-09-11T23:21:52.916Z,95506.47
2022-09-11T23:24:38.765Z,95509.88
2022-09-11T23:27:24.754Z,95502.00
2022-09-11T23:30:11.510Z,95492.81
2022-09-11T23:32:57.768Z,95502.47
2022-09-11T23:35:43.664Z,95488.59
2022-09-11T23:38:29.476Z,95488.13
2022-09-11T23:41:15.786Z,95511.19
2022-09-11T23:44:02.452Z,95506.47
2022-09-11T23:46:48.511Z,95488.81
2022-09-11T23:49:36.365Z,95501.19
2022-09-11T23:52:22.627Z,95501.06
2022-09-11T23:55:08.995Z,95500.34
2022-09-11T23:57:55.406Z,95498.34
